sensor_id;sensor_type;location;lat;lon;timestamp;pressure;altitude;pressure_sealevel;temperature;humidity
75013;BME280;63567;49.956;20.130;2024-03-22T00:01:47;97188.47;;;10.45;61.39
75013;BME280;63567;49.956;20.130;2024-03-22T00:04:12;97181.41;;;10.45;62.12
75013;BME280;63567;49.956;20.130;2024-03-22T00:06:39;97184.69;;;10.47;61.93
75013;BME280;63567;49.956;20.130;2024-03-22T00:09:04;97183.50;;;10.50;62.16
75013;BME280;63567;49.956;20.130;2024-03-22T00:11:29;97182.31;;;10.53;62.36
75013;BME280;63567;49.956;20.130;2024-03-22T00:13:55;97180.31;;;10.55;62.58
75013;BME280;63567;49.956;20.130;2024-03-22T00:16:20;97181.75;;;10.57;62.24
75013;BME280;63567;49.956;20.130;2024-03-22T00:18:45;97178.94;;;10.59;62.33
75013;BME280;63567;49.956;20.130;2024-03-22T00:21:10;97175.91;;;10.62;62.77
75013;BME280;63567;49.956;20.130;2024-03-22T00:23:36;97177.56;;;10.63;62.53
75013;BME280;63567;49.956;20.130;2024-03-22T00:26:01;97171.47;;;10.62;62.96
75013;BME280;63567;49.956;20.130;2024-03-22T00:28:26;97179.00;;;10.65;63.43
75013;BME280;63567;49.956;20.130;2024-03-22T00:30:51;97177.00;;;10.67;62.89
75013;BME280;63567;49.956;20.130;2024-03-22T00:33:17;97174.16;;;10.69;63.01
75013;BME280;63567;49.956;20.130;2024-03-22T00:35:42;97170.56;;;10.70;63.30
75013;BME280;63567;49.956;20.130;2024-03-22T00:38:07;97171.19;;;10.72;63.19
75013;BME280;63567;49.956;20.130;2024-03-22T00:40:33;97170.38;;;10.72;63.54
75013;BME280;63567;49.956;20.130;2024-03-22T00:42:58;97179.72;;;10.74;63.81
75013;BME280;63567;49.956;20.130;2024-03-22T00:45:23;97167.19;;;10.76;64.19
75013;BME280;63567;49.956;20.130;2024-03-22T00:47:48;97171.25;;;10.79;64.15
75013;BME280;63567;49.956;20.130;2024-03-22T00:50:14;97166.78;;;10.79;64.63
75013;BME280;63567;49.956;20.130;2024-03-22T00:52:39;97171.06;;;10.80;64.81
75013;BME280;63567;49.956;20.130;2024-03-22T00:55:04;97171.72;;;10.82;65.12
75013;BME280;63567;49.956;20.130;2024-03-22T00:57:30;97174.13;;;10.84;65.38
75013;BME280;63567;49.956;20.130;2024-03-22T00:59:55;97171.31;;;10.85;65.29
75013;BME280;63567;49.956;20.130;2024-03-22T01:02:21;97174.59;;;10.87;65.47
75013;BME280;63567;49.956;20.130;2024-03-22T01:04:47;97175.22;;;10.89;65.31
75013;BME280;63567;49.956;20.130;2024-03-22T01:07:12;97173.41;;;10.90;65.53
75013;BME280;63567;49.956;20.130;2024-03-22T01:09:38;97167.94;;;10.92;66.32
75013;BME280;63567;49.956;20.130;2024-03-22T01:12:03;97169.56;;;10.93;66.41
75013;BME280;63567;49.956;20.130;2024-03-22T01:14:29;97166.56;;;10.96;66.52
75013;BME280;63567;49.956;20.130;2024-03-22T01:16:54;97175.09;;;10.98;67.09
75013;BME280;63567;49.956;20.130;2024-03-22T01:19:20;97169.84;;;10.98;66.91
75013;BME280;63567;49.956;20.130;2024-03-22T01:21:46;97172.72;;;11.03;67.25
75013;BME280;63567;49.956;20.130;2024-03-22T01:24:11;97167.28;;;11.04;67.37
75013;BME280;63567;49.956;20.130;2024-03-22T01:26:37;97175.81;;;11.06;67.38
75013;BME280;63567;49.956;20.130;2024-03-22T01:29:02;97172.97;;;11.08;67.70
75013;BME280;63567;49.956;20.130;2024-03-22T01:31:27;97170.16;;;11.09;67.68
75013;BME280;63567;49.956;20.130;2024-03-22T01:33:52;97161.88;;;11.13;67.73
75013;BME280;63567;49.956;20.130;2024-03-22T01:36:18;97166.94;;;11.14;68.14
75013;BME280;63567;49.956;20.130;2024-03-22T01:38:43;97166.75;;;11.16;68.25
75013;BME280;63567;49.956;20.130;2024-03-22T01:41:08;97158.84;;;11.16;68.46
75013;BME280;63567;49.956;20.130;2024-03-22T01:43:34;97163.09;;;11.17;68.43
75013;BME280;63567;49.956;20.130;2024-03-22T01:45:59;97160.47;;;11.17;68.66
75013;BME280;63567;49.956;20.130;2024-03-22T01:48:24;97161.09;;;11.19;68.92
75013;BME280;63567;49.956;20.130;2024-03-22T01:50:50;97164.56;;;11.19;69.01
75013;BME280;63567;49.956;20.130;2024-03-22T01:53:16;97157.28;;;11.21;69.02
75013;BME280;63567;49.956;20.130;2024-03-22T01:55:42;97159.72;;;11.23;68.99
75013;BME280;63567;49.956;20.130;2024-03-22T01:58:08;97160.75;;;11.22;69.31
75013;BME280;63567;49.956;20.130;2024-03-22T02:00:33;97169.28;;;11.24;69.49
75013;BME280;63567;49.956;20.130;2024-03-22T02:02:59;97160.34;;;11.25;69.22
75013;BME280;63567;49.956;20.130;2024-03-22T02:05:24;97153.25;;;11.25;69.17
75013;BME280;63567;49.956;20.130;2024-03-22T02:07:49;97162.63;;;11.28;69.28
75013;BME280;63567;49.956;20.130;2024-03-22T02:10:14;97158.97;;;11.29;69.38
75013;BME280;63567;49.956;20.130;2024-03-22T02:12:41;97159.78;;;11.29;68.96
75013;BME280;63567;49.956;20.130;2024-03-22T02:15:07;97162.22;;;11.31;69.68
75013;BME280;63567;49.956;20.130;2024-03-22T02:17:34;97160.41;;;11.31;69.41
75013;BME280;63567;49.956;20.130;2024-03-22T02:19:59;97165.69;;;11.31;69.74
75013;BME280;63567;49.956;20.130;2024-03-22T02:22:26;97172.59;;;11.33;69.70
75013;BME280;63567;49.956;20.130;2024-03-22T02:24:51;97171.59;;;11.34;70.11
75013;BME280;63567;49.956;20.130;2024-03-22T02:27:17;97172.59;;;11.33;70.10
75013;BME280;63567;49.956;20.130;2024-03-22T02:29:42;97180.50;;;11.33;70.23
75013;BME280;63567;49.956;20.130;2024-03-22T02:32:09;97169.16;;;11.32;70.18
75013;BME280;63567;49.956;20.130;2024-03-22T02:34:35;97170.78;;;11.33;70.14
75013;BME280;63567;49.956;20.130;2024-03-22T02:37:00;97164.47;;;11.34;70.36
75013;BME280;63567;49.956;20.130;2024-03-22T02:39:26;97164.69;;;11.33;70.18
75013;BME280;63567;49.956;20.130;2024-03-22T02:41:51;97162.88;;;11.33;70.39
75013;BME280;63567;49.956;20.130;2024-03-22T02:44:16;97155.97;;;11.32;70.44
75013;BME280;63567;49.956;20.130;2024-03-22T02:46:42;97164.69;;;11.33;70.36
75013;BME280;63567;49.956;20.130;2024-03-22T02:49:07;97164.69;;;11.33;70.72
75013;BME280;63567;49.956;20.130;2024-03-22T02:51:32;97163.44;;;11.28;70.92
75013;BME280;63567;49.956;20.130;2024-03-22T02:53:58;97170.94;;;11.31;71.26
75013;BME280;63567;49.956;20.130;2024-03-22T02:56:23;97168.72;;;11.28;71.33
75013;BME280;63567;49.956;20.130;2024-03-22T02:58:51;97174.97;;;11.27;71.38
75013;BME280;63567;49.956;20.130;2024-03-22T03:01:16;97173.19;;;11.28;71.70
75013;BME280;63567;49.956;20.130;2024-03-22T03:03:42;97168.88;;;11.27;71.48
75013;BME280;63567;49.956;20.130;2024-03-22T03:06:07;97176.81;;;11.27;71.55
75013;BME280;63567;49.956;20.130;2024-03-22T03:08:33;97174.16;;;11.27;71.79
75013;BME280;63567;49.956;20.130;2024-03-22T03:10:58;97170.72;;;11.26;71.39
75013;BME280;63567;49.956;20.130;2024-03-22T03:13:24;97164.81;;;11.24;71.98
75013;BME280;63567;49.956;20.130;2024-03-22T03:15:49;97172.72;;;11.24;72.42
75013;BME280;63567;49.956;20.130;2024-03-22T03:18:14;97179.81;;;11.24;72.64
75013;BME280;63567;49.956;20.130;2024-03-22T03:20:40;97167.00;;;11.21;72.95
75013;BME280;63567;49.956;20.130;2024-03-22T03:23:05;97171.28;;;11.22;73.29
75013;BME280;63567;49.956;20.130;2024-03-22T03:25:30;97166.19;;;11.20;73.29
75013;BME280;63567;49.956;20.130;2024-03-22T03:27:55;97170.66;;;11.20;72.96
75013;BME280;63567;49.956;20.130;2024-03-22T03:30:21;97171.66;;;11.19;73.25
75013;BME280;63567;49.956;20.130;2024-03-22T03:32:46;97158.03;;;11.15;73.20
75013;BME280;63567;49.956;20.130;2024-03-22T03:35:11;97165.56;;;11.18;73.83
75013;BME280;63567;49.956;20.130;2024-03-22T03:37:36;97161.31;;;11.17;73.59
75013;BME280;63567;49.956;20.130;2024-03-22T03:40:03;97157.66;;;11.18;73.68
75013;BME280;63567;49.956;20.130;2024-03-22T03:42:29;97159.47;;;11.18;73.72
75013;BME280;63567;49.956;20.130;2024-03-22T03:44:55;97148.13;;;11.17;74.22
75013;BME280;63567;49.956;20.130;2024-03-22T03:47:20;97159.66;;;11.16;74.27
75013;BME280;63567;49.956;20.130;2024-03-22T03:49:46;97150.94;;;11.16;74.37
75013;BME280;63567;49.956;20.130;2024-03-22T03:52:11;97151.13;;;11.14;74.54
75013;BME280;63567;49.956;20.130;2024-03-22T03:54:36;97148.47;;;11.14;74.76
75013;BME280;63567;49.956;20.130;2024-03-22T03:57:02;97151.13;;;11.14;74.86
75013;BME280;63567;49.956;20.130;2024-03-22T03:59:27;97149.50;;;11.13;74.71
75013;BME280;63567;49.956;20.130;2024-03-22T04:01:52;97150.69;;;11.10;75.04
75013;BME280;63567;49.956;20.130;2024-03-22T04:04:17;97154.31;;;11.09;75.03
75013;BME280;63567;49.956;20.130;2024-03-22T04:06:44;97154.31;;;11.09;74.98
75013;BME280;63567;49.956;20.130;2024-03-22T04:09:09;97159.59;;;11.09;74.98
75013;BME280;63567;49.956;20.130;2024-03-22T04:11:35;97145.78;;;11.07;75.64
75013;BME280;63567;49.956;20.130;2024-03-22T04:14:00;97152.88;;;11.07;75.78
75013;BME280;63567;49.956;20.130;2024-03-22T04:16:25;97148.00;;;11.04;76.10
75013;BME280;63567;49.956;20.130;2024-03-22T04:18:50;97139.47;;;11.02;76.32
75013;BME280;63567;49.956;20.130;2024-03-22T04:21:16;97142.72;;;11.04;76.95
75013;BME280;63567;49.956;20.130;2024-03-22T04:23:41;97151.44;;;11.04;76.30
75013;BME280;63567;49.956;20.130;2024-03-22T04:26:06;97154.09;;;11.04;76.61
75013;BME280;63567;49.956;20.130;2024-03-22T04:28:31;97153.28;;;11.04;77.04
75013;BME280;63567;49.956;20.130;2024-03-22T04:31:05;97147.16;;;11.03;76.73
75013;BME280;63567;49.956;20.130;2024-03-22T04:33:31;97153.47;;;11.02;77.03
75013;BME280;63567;49.956;20.130;2024-03-22T04:35:58;97161.38;;;11.02;77.04
75013;BME280;63567;49.956;20.130;2024-03-22T04:38:24;97156.09;;;11.02;77.00
75013;BME280;63567;49.956;20.130;2024-03-22T04:40:50;97149.56;;;10.98;77.35
75013;BME280;63567;49.956;20.130;2024-03-22T04:43:15;97158.56;;;11.04;77.51
75013;BME280;63567;49.956;20.130;2024-03-22T04:45:43;97153.47;;;11.02;77.95
75013;BME280;63567;49.956;20.130;2024-03-22T04:48:08;97151.81;;;11.01;78.34
75013;BME280;63567;49.956;20.130;2024-03-22T04:50:33;97152.03;;;11.00;77.89
75013;BME280;63567;49.956;20.130;2024-03-22T04:52:59;97159.94;;;11.00;78.09
75013;BME280;63567;49.956;20.130;2024-03-22T04:55:24;97160.91;;;10.99;77.50
75013;BME280;63567;49.956;20.130;2024-03-22T04:57:51;97162.75;;;10.98;77.88
75013;BME280;63567;49.956;20.130;2024-03-22T05:00:17;97167.84;;;11.00;78.19
75013;BME280;63567;49.956;20.130;2024-03-22T05:02:42;97172.28;;;10.99;78.14
75013;BME280;63567;49.956;20.130;2024-03-22T05:05:07;97170.47;;;11.00;78.09
75013;BME280;63567;49.956;20.130;2024-03-22T05:07:33;97165.19;;;11.00;78.11
75013;BME280;63567;49.956;20.130;2024-03-22T05:09:58;97173.09;;;11.00;78.28
75013;BME280;63567;49.956;20.130;2024-03-22T05:12:23;97173.09;;;11.00;78.35
75013;BME280;63567;49.956;20.130;2024-03-22T05:14:49;97168.81;;;10.99;78.62
75013;BME280;63567;49.956;20.130;2024-03-22T05:17:14;97176.72;;;10.99;78.83
75013;BME280;63567;49.956;20.130;2024-03-22T05:19:39;97166.19;;;10.99;78.79
75013;BME280;63567;49.956;20.130;2024-03-22T05:22:04;97169.00;;;10.97;79.23
75013;BME280;63567;49.956;20.130;2024-03-22T05:24:31;97170.47;;;11.00;79.14
75013;BME280;63567;49.956;20.130;2024-03-22T05:26:56;97184.28;;;11.02;79.27
75013;BME280;63567;49.956;20.130;2024-03-22T05:29:21;97181.66;;;11.02;79.26
75013;BME280;63567;49.956;20.130;2024-03-22T05:31:48;97181.81;;;11.00;79.40
75013;BME280;63567;49.956;20.130;2024-03-22T05:34:14;97178.81;;;11.03;79.91
75013;BME280;63567;49.956;20.130;2024-03-22T05:36:40;97181.66;;;11.02;79.80
75013;BME280;63567;49.956;20.130;2024-03-22T05:39:05;97185.72;;;11.04;80.10
75013;BME280;63567;49.956;20.130;2024-03-22T05:41:30;97185.50;;;11.06;80.44
75013;BME280;63567;49.956;20.130;2024-03-22T05:43:56;97182.47;;;11.02;80.48
75013;BME280;63567;49.956;20.130;2024-03-22T05:46:21;97181.25;;;11.05;80.67
75013;BME280;63567;49.956;20.130;2024-03-22T05:48:46;97187.34;;;11.05;80.72
75013;BME280;63567;49.956;20.130;2024-03-22T05:51:13;97188.16;;;11.06;80.48
75013;BME280;63567;49.956;20.130;2024-03-22T05:53:39;97193.06;;;11.09;80.54
75013;BME280;63567;49.956;20.130;2024-03-22T05:56:04;97188.78;;;11.08;80.81
75013;BME280;63567;49.956;20.130;2024-03-22T05:58:30;97200.78;;;11.10;80.69
75013;BME280;63567;49.956;20.130;2024-03-22T06:00:55;97190.88;;;11.13;80.54
75013;BME280;63567;49.956;20.130;2024-03-22T06:03:21;97193.31;;;11.14;80.63
75013;BME280;63567;49.956;20.130;2024-03-22T06:05:46;97188.88;;;11.15;80.75
75013;BME280;63567;49.956;20.130;2024-03-22T06:08:11;97199.22;;;11.16;81.22
75013;BME280;63567;49.956;20.130;2024-03-22T06:10:36;97191.13;;;11.18;81.55
75013;BME280;63567;49.956;20.130;2024-03-22T06:13:01;97193.59;;;11.19;81.64
75013;BME280;63567;49.956;20.130;2024-03-22T06:15:28;97188.50;;;11.18;81.62
75013;BME280;63567;49.956;20.130;2024-03-22T06:17:53;97197.66;;;11.22;81.94
75013;BME280;63567;49.956;20.130;2024-03-22T06:20:18;97194.22;;;11.21;81.94
75013;BME280;63567;49.956;20.130;2024-03-22T06:22:44;97198.06;;;11.25;81.66
75013;BME280;63567;49.956;20.130;2024-03-22T06:25:09;97190.00;;;11.27;81.48
75013;BME280;63567;49.956;20.130;2024-03-22T06:27:34;97196.91;;;11.28;81.60
75013;BME280;63567;49.956;20.130;2024-03-22T06:29:59;97194.06;;;11.29;81.12
75013;BME280;63567;49.956;20.130;2024-03-22T06:32:25;97189.41;;;11.31;81.16
75013;BME280;63567;49.956;20.130;2024-03-22T06:34:50;97190.03;;;11.34;81.20
75013;BME280;63567;49.956;20.130;2024-03-22T06:37:15;97189.69;;;11.37;81.10
75013;BME280;63567;49.956;20.130;2024-03-22T06:39:40;97194.56;;;11.40;80.92
75013;BME280;63567;49.956;20.130;2024-03-22T06:42:06;97200.28;;;11.43;81.09
75013;BME280;63567;49.956;20.130;2024-03-22T06:44:31;97207.19;;;11.44;80.92
75013;BME280;63567;49.956;20.130;2024-03-22T06:46:56;97203.34;;;11.47;80.93
75013;BME280;63567;49.956;20.130;2024-03-22T06:49:22;97206.63;;;11.49;81.05
75013;BME280;63567;49.956;20.130;2024-03-22T06:51:47;97195.06;;;11.50;80.87
75013;BME280;63567;49.956;20.130;2024-03-22T06:54:12;97195.69;;;11.52;81.03
75013;BME280;63567;49.956;20.130;2024-03-22T06:56:37;97200.78;;;11.54;81.03
75013;BME280;63567;49.956;20.130;2024-03-22T06:59:03;97199.78;;;11.55;80.87
75013;BME280;63567;49.956;20.130;2024-03-22T07:01:28;97203.66;;;11.59;80.90
75013;BME280;63567;49.956;20.130;2024-03-22T07:03:53;97200.00;;;11.60;80.68
75013;BME280;63567;49.956;20.130;2024-03-22T07:06:18;97197.81;;;11.63;80.73
75013;BME280;63567;49.956;20.130;2024-03-22T07:08:44;97197.44;;;11.66;80.90
75013;BME280;63567;49.956;20.130;2024-03-22T07:11:09;97194.59;;;11.68;80.59
75013;BME280;63567;49.956;20.130;2024-03-22T07:13:34;97189.16;;;11.69;80.45
75013;BME280;63567;49.956;20.130;2024-03-22T07:16:00;97198.31;;;11.74;80.28
75013;BME280;63567;49.956;20.130;2024-03-22T07:18:25;97198.72;;;11.77;80.29
75013;BME280;63567;49.956;20.130;2024-03-22T07:20:51;97188.78;;;11.79;80.44
75013;BME280;63567;49.956;20.130;2024-03-22T07:23:16;97193.72;;;11.82;80.10
75013;BME280;63567;49.956;20.130;2024-03-22T07:25:41;97202.03;;;11.86;79.99
75013;BME280;63567;49.956;20.130;2024-03-22T07:28:13;97191.47;;;11.86;80.05
75013;BME280;63567;49.956;20.130;2024-03-22T07:30:39;97192.13;;;11.88;79.94
75013;BME280;63567;49.956;20.130;2024-03-22T07:33:04;97199.06;;;11.89;79.93
75013;BME280;63567;49.956;20.130;2024-03-22T07:35:29;97193.38;;;11.92;80.17
75013;BME280;63567;49.956;20.130;2024-03-22T07:37:56;97193.03;;;11.95;79.82
75013;BME280;63567;49.956;20.130;2024-03-22T07:40:21;97195.06;;;12.00;79.55
75013;BME280;63567;49.956;20.130;2024-03-22T07:42:47;97177.22;;;12.02;79.80
75013;BME280;63567;49.956;20.130;2024-03-22T07:45:12;97183.50;;;12.01;79.40
75013;BME280;63567;49.956;20.130;2024-03-22T07:47:37;97181.47;;;12.03;79.67
75013;BME280;63567;49.956;20.130;2024-03-22T07:50:03;97183.13;;;12.04;79.57
75013;BME280;63567;49.956;20.130;2024-03-22T07:52:29;97191.84;;;12.04;79.42
75013;BME280;63567;49.956;20.130;2024-03-22T07:54:54;97177.00;;;12.03;79.41
75013;BME280;63567;49.956;20.130;2024-03-22T07:57:20;97163.81;;;12.03;79.23
75013;BME280;63567;49.956;20.130;2024-03-22T07:59:45;97174.38;;;12.03;78.91
75013;BME280;63567;49.956;20.130;2024-03-22T08:02:10;97172.13;;;12.00;78.97
75013;BME280;63567;49.956;20.130;2024-03-22T08:04:36;97165.22;;;11.99;78.88
75013;BME280;63567;49.956;20.130;2024-03-22T08:07:01;97161.97;;;11.97;79.02
75013;BME280;63567;49.956;20.130;2024-03-22T08:09:26;97168.25;;;11.96;79.20
75013;BME280;63567;49.956;20.130;2024-03-22T08:11:51;97162.97;;;11.96;78.81
75013;BME280;63567;49.956;20.130;2024-03-22T08:14:17;97155.22;;;11.95;78.74
75013;BME280;63567;49.956;20.130;2024-03-22T08:16:42;97158.06;;;11.93;78.58
75013;BME280;63567;49.956;20.130;2024-03-22T08:19:07;97162.09;;;11.89;78.88
75013;BME280;63567;49.956;20.130;2024-03-22T08:21:32;97172.66;;;11.89;79.30
75013;BME280;63567;49.956;20.130;2024-03-22T08:23:58;97165.09;;;11.86;79.70
75013;BME280;63567;49.956;20.130;2024-03-22T08:26:23;97173.41;;;11.83;79.85
75013;BME280;63567;49.956;20.130;2024-03-22T08:28:48;97165.88;;;11.80;80.57
75013;BME280;63567;49.956;20.130;2024-03-22T08:31:14;97167.69;;;11.79;80.87
75013;BME280;63567;49.956;20.130;2024-03-22T08:33:39;97177.00;;;11.75;80.77
75013;BME280;63567;49.956;20.130;2024-03-22T08:36:05;97163.16;;;11.73;81.15
75013;BME280;63567;49.956;20.130;2024-03-22T08:38:30;97173.13;;;11.71;81.54
75013;BME280;63567;49.956;20.130;2024-03-22T08:40:55;97161.94;;;11.69;82.08
75013;BME280;63567;49.956;20.130;2024-03-22T08:43:21;97170.03;;;11.67;81.96
75013;BME280;63567;49.956;20.130;2024-03-22T08:45:47;97171.25;;;11.65;81.58
75013;BME280;63567;49.956;20.130;2024-03-22T08:48:13;97172.25;;;11.64;81.70
75013;BME280;63567;49.956;20.130;2024-03-22T08:50:38;97180.56;;;11.61;81.99
75013;BME280;63567;49.956;20.130;2024-03-22T08:53:03;97181.75;;;11.58;82.10
75013;BME280;63567;49.956;20.130;2024-03-22T08:55:29;97175.84;;;11.56;82.86
75013;BME280;63567;49.956;20.130;2024-03-22T08:57:55;97170.94;;;11.53;82.52
75013;BME280;63567;49.956;20.130;2024-03-22T09:00:20;97165.03;;;11.51;83.17
75013;BME280;63567;49.956;20.130;2024-03-22T09:02:47;97157.97;;;11.51;83.50
75013;BME280;63567;49.956;20.130;2024-03-22T09:05:12;97159.34;;;11.47;83.31
75013;BME280;63567;49.956;20.130;2024-03-22T09:07:37;97157.69;;;11.46;83.53
75013;BME280;63567;49.956;20.130;2024-03-22T09:10:03;97156.88;;;11.46;83.70
75013;BME280;63567;49.956;20.130;2024-03-22T09:12:28;97163.78;;;11.47;84.13
75013;BME280;63567;49.956;20.130;2024-03-22T09:14:54;97169.91;;;11.47;84.30
75013;BME280;63567;49.956;20.130;2024-03-22T09:17:19;97160.97;;;11.48;84.42
75013;BME280;63567;49.956;20.130;2024-03-22T09:19:44;97154.47;;;11.51;83.96
75013;BME280;63567;49.956;20.130;2024-03-22T09:22:09;97150.84;;;11.52;84.04
75013;BME280;63567;49.956;20.130;2024-03-22T09:24:35;97156.94;;;11.52;83.71
75013;BME280;63567;49.956;20.130;2024-03-22T09:27:00;97152.28;;;11.55;83.18
75013;BME280;63567;49.956;20.130;2024-03-22T09:29:25;97156.34;;;11.57;83.04
75013;BME280;63567;49.956;20.130;2024-03-22T09:31:50;97151.31;;;11.62;83.33
75013;BME280;63567;49.956;20.130;2024-03-22T09:34:16;97149.13;;;11.66;83.12
75013;BME280;63567;49.956;20.130;2024-03-22T09:36:41;97147.34;;;11.73;82.90
75013;BME280;63567;49.956;20.130;2024-03-22T09:39:07;97146.78;;;11.78;82.81
75013;BME280;63567;49.956;20.130;2024-03-22T09:41:34;97132.59;;;11.85;82.63
75013;BME280;63567;49.956;20.130;2024-03-22T09:44:05;97135.94;;;11.94;82.24
75013;BME280;63567;49.956;20.130;2024-03-22T09:46:32;97138.41;;;12.02;81.97
75013;BME280;63567;49.956;20.130;2024-03-22T09:48:58;97133.38;;;12.07;81.37
75013;BME280;63567;49.956;20.130;2024-03-22T09:51:24;97141.13;;;12.16;80.28
75013;BME280;63567;49.956;20.130;2024-03-22T09:53:51;97138.53;;;12.22;79.98
75013;BME280;63567;49.956;20.130;2024-03-22T09:56:18;97143.84;;;12.29;79.45
75013;BME280;63567;49.956;20.130;2024-03-22T09:58:45;97140.41;;;12.35;78.77
75013;BME280;63567;49.956;20.130;2024-03-22T10:01:11;97135.75;;;12.37;78.17
75013;BME280;63567;49.956;20.130;2024-03-22T10:03:37;97131.28;;;12.44;77.77
75013;BME280;63567;49.956;20.130;2024-03-22T10:06:02;97140.28;;;12.50;77.54
75013;BME280;63567;49.956;20.130;2024-03-22T10:08:28;97141.69;;;12.52;77.13
75013;BME280;63567;49.956;20.130;2024-03-22T10:10:53;97133.41;;;12.56;76.72
75013;BME280;63567;49.956;20.130;2024-03-22T10:13:18;97130.97;;;12.61;76.36
75013;BME280;63567;49.956;20.130;2024-03-22T10:15:44;97134.22;;;12.63;76.04
75013;BME280;63567;49.956;20.130;2024-03-22T10:18:10;97133.44;;;12.69;75.84
75013;BME280;63567;49.956;20.130;2024-03-22T10:20:35;97133.81;;;12.72;75.43
75013;BME280;63567;49.956;20.130;2024-03-22T10:23:00;97132.41;;;12.77;75.40
75013;BME280;63567;49.956;20.130;2024-03-22T10:25:26;97128.16;;;12.76;74.92
75013;BME280;63567;49.956;20.130;2024-03-22T10:27:54;97131.00;;;12.81;74.63
75013;BME280;63567;49.956;20.130;2024-03-22T10:30:19;97130.19;;;12.80;74.54
75013;BME280;63567;49.956;20.130;2024-03-22T10:32:44;97137.09;;;12.81;74.35
75013;BME280;63567;49.956;20.130;2024-03-22T10:35:12;97126.53;;;12.81;74.09
75013;BME280;63567;49.956;20.130;2024-03-22T10:37:38;97126.94;;;12.78;74.01
75013;BME280;63567;49.956;20.130;2024-03-22T10:40:04;97128.56;;;12.79;73.94
75013;BME280;63567;49.956;20.130;2024-03-22T10:42:37;97112.91;;;12.78;73.51
75013;BME280;63567;49.956;20.130;2024-03-22T10:45:04;97115.75;;;12.76;73.46
75013;BME280;63567;49.956;20.130;2024-03-22T10:47:31;97117.38;;;12.77;73.37
75013;BME280;63567;49.956;20.130;2024-03-22T10:50:07;97110.06;;;12.79;73.53
75013;BME280;63567;49.956;20.130;2024-03-22T10:52:45;97112.31;;;12.82;73.60
75013;BME280;63567;49.956;20.130;2024-03-22T10:55:18;97109.66;;;12.82;73.67
75013;BME280;63567;49.956;20.130;2024-03-22T10:57:45;97107.63;;;12.84;73.33
75013;BME280;63567;49.956;20.130;2024-03-22T11:00:11;97110.06;;;12.86;73.41
75013;BME280;63567;49.956;20.130;2024-03-22T11:02:37;97107.03;;;12.89;73.23
75013;BME280;63567;49.956;20.130;2024-03-22T11:05:05;97102.16;;;12.92;73.39
75013;BME280;63567;49.956;20.130;2024-03-22T11:07:32;97100.94;;;12.95;72.99
75013;BME280;63567;49.956;20.130;2024-03-22T11:09:58;97102.38;;;12.98;73.29
75013;BME280;63567;49.956;20.130;2024-03-22T11:12:26;97088.72;;;13.01;73.18
75013;BME280;63567;49.956;20.130;2024-03-22T11:14:55;97085.09;;;13.02;72.89
75013;BME280;63567;49.956;20.130;2024-03-22T11:17:20;97086.94;;;13.08;73.02
75013;BME280;63567;49.956;20.130;2024-03-22T11:19:50;97088.97;;;13.12;72.83
75013;BME280;63567;49.956;20.130;2024-03-22T11:22:16;97081.63;;;13.14;72.83
75013;BME280;63567;49.956;20.130;2024-03-22T11:24:41;97078.75;;;13.16;72.25
75013;BME280;63567;49.956;20.130;2024-03-22T11:27:06;97077.97;;;13.15;71.36
75013;BME280;63567;49.956;20.130;2024-03-22T11:29:32;97077.97;;;13.15;71.68
75013;BME280;63567;49.956;20.130;2024-03-22T11:31:57;97085.50;;;13.12;71.61
75013;BME280;63567;49.956;20.130;2024-03-22T11:34:23;97067.19;;;13.10;71.36
75013;BME280;63567;49.956;20.130;2024-03-22T11:36:48;97067.81;;;13.06;71.35
75013;BME280;63567;49.956;20.130;2024-03-22T11:39:15;97066.34;;;13.03;71.38
75013;BME280;63567;49.956;20.130;2024-03-22T11:41:41;97058.84;;;13.00;71.38
75013;BME280;63567;49.956;20.130;2024-03-22T11:44:06;97044.59;;;12.94;71.68
75013;BME280;63567;49.956;20.130;2024-03-22T11:46:32;97045.00;;;12.98;71.83
75013;BME280;63567;49.956;20.130;2024-03-22T11:48:58;97040.13;;;13.02;72.06
75013;BME280;63567;49.956;20.130;2024-03-22T11:51:24;97041.97;;;13.08;72.37
75013;BME280;63567;49.956;20.130;2024-03-22T11:53:52;97045.41;;;13.15;72.37
75013;BME280;63567;49.956;20.130;2024-03-22T11:56:20;97034.03;;;13.21;72.43
75013;BME280;63567;49.956;20.130;2024-03-22T11:58:49;97038.31;;;13.29;72.42
75013;BME280;63567;49.956;20.130;2024-03-22T12:01:22;97033.84;;;13.36;72.41
75013;BME280;63567;49.956;20.130;2024-03-22T12:03:47;97028.31;;;13.44;72.14
75013;BME280;63567;49.956;20.130;2024-03-22T12:06:12;97020.97;;;13.53;72.08
75013;BME280;63567;49.956;20.130;2024-03-22T12:08:38;97021.78;;;13.60;71.77
75013;BME280;63567;49.956;20.130;2024-03-22T12:11:07;97014.81;;;13.66;71.54
75013;BME280;63567;49.956;20.130;2024-03-22T12:13:32;97007.47;;;13.74;71.28
75013;BME280;63567;49.956;20.130;2024-03-22T12:15:58;97005.19;;;13.85;71.75
75013;BME280;63567;49.956;20.130;2024-03-22T12:18:23;97002.91;;;13.95;71.56
75013;BME280;63567;49.956;20.130;2024-03-22T12:20:48;97004.09;;;14.06;71.45
75013;BME280;63567;49.956;20.130;2024-03-22T12:23:13;97008.94;;;14.15;70.75
75013;BME280;63567;49.956;20.130;2024-03-22T12:25:39;97003.38;;;14.24;70.46
75013;BME280;63567;49.956;20.130;2024-03-22T12:28:04;97002.34;;;14.31;70.12
75013;BME280;63567;49.956;20.130;2024-03-22T12:30:29;96997.16;;;14.43;69.98
75013;BME280;63567;49.956;20.130;2024-03-22T12:32:55;96995.88;;;14.52;69.70
75013;BME280;63567;49.956;20.130;2024-03-22T12:35:21;96983.44;;;14.60;69.30
75013;BME280;63567;49.956;20.130;2024-03-22T12:37:46;96975.03;;;14.63;68.95
75013;BME280;63567;49.956;20.130;2024-03-22T12:40:11;96972.78;;;14.66;68.74
75013;BME280;63567;49.956;20.130;2024-03-22T12:42:39;96970.69;;;14.75;68.71